Time;durP1;ratioP1;P1;durP2;ratioP2;P2;SDS_P1;SDS_P2;PMS_P1;PMS_P2;Temp;Humidity;BMP_temperature;BMP_pressure;BME280_temperature;BME280_humidity;BME280_pressure;Samples;Min_cycle;Max_cycle;Signal;HPM_P1;HPM_P2
2022/04/04 00:00:03;;;;;;;1.60;0.60;;;29.00;81.90;;;;;;4977521;28;20031;-76
2022/04/04 00:02:30;;;;;;;1.35;0.63;;;29.30;81.20;;;;;;4971848;28;20026;-74
2022/04/04 00:04:58;;;;;;;13.48;3.15;;;29.40;80.80;;;;;;4975700;28;20033;-75
2022/04/04 00:07:25;;;;;;;3.08;1.00;;;29.50;78.60;;;;;;4975021;28;20027;-73
2022/04/04 00:09:53;;;;;;;65.80;18.45;;;29.70;80.00;;;;;;4968427;28;20085;-74
2022/04/04 00:12:20;;;;;;;4.22;0.70;;;30.00;79.10;;;;;;4968493;28;20813;-72
2022/04/04 00:14:49;;;;;;;2.88;1.08;;;29.80;77.20;;;;;;4970618;28;20042;-73
2022/04/04 00:17:17;;;;;;;14.60;6.05;;;29.60;77.40;;;;;;4972321;28;20078;-73
2022/04/04 00:19:45;;;;;;;7.78;2.25;;;29.60;77.10;;;;;;4976119;28;20054;-73
2022/04/04 00:22:12;;;;;;;13.35;5.00;;;29.60;77.00;;;;;;4978436;28;20533;-75
2022/04/04 00:24:40;;;;;;;6.20;2.03;;;30.10;77.20;;;;;;4977772;28;20077;-73
2022/04/04 00:27:07;;;;;;;7.18;2.67;;;30.50;76.30;;;;;;4975140;28;20027;-74
2022/04/04 00:29:35;;;;;;;3.22;1.02;;;30.60;77.00;;;;;;4972883;28;20041;-75
2022/04/04 00:32:02;;;;;;;7.22;2.13;;;30.50;76.70;;;;;;4982422;28;20031;-75
2022/04/04 00:34:30;;;;;;;0.93;0.40;;;30.10;78.30;;;;;;4973487;28;20062;-74
2022/04/04 00:36:57;;;;;;;1.65;0.40;;;30.10;79.20;;;;;;4975707;28;20081;-74
2022/04/04 00:39:26;;;;;;;3.20;0.60;;;30.10;79.90;;;;;;4969573;28;21034;-75
2022/04/04 00:41:54;;;;;;;3.10;0.77;;;30.00;78.80;;;;;;4975441;28;20038;-75
2022/04/04 00:44:21;;;;;;;0.70;0.40;;;30.00;78.40;;;;;;4974362;28;20120;-74
2022/04/04 00:46:48;;;;;;;2.45;0.63;;;30.00;80.00;;;;;;4976962;28;20035;-75
2022/04/04 00:49:16;;;;;;;1.08;0.47;;;29.80;77.30;;;;;;4981638;28;20031;-74
2022/04/04 00:51:43;;;;;;;2.45;0.70;;;29.60;79.30;;;;;;4990489;28;20093;-76
2022/04/04 00:54:11;;;;;;;1.23;0.40;;;29.60;76.50;;;;;;4990199;28;20114;-75
2022/04/04 00:56:39;;;;;;;0.82;0.40;;;29.70;76.60;;;;;;4991289;28;20026;-76
2022/04/04 00:59:10;;;;;;;4.00;0.55;;;29.80;77.50;;;;;;4975678;28;20041;-75
2022/04/04 01:01:37;;;;;;;1.17;0.30;;;29.90;78.40;;;;;;4974596;28;20102;-75
2022/04/04 01:04:08;;;;;;;0.93;0.40;;;30.20;76.80;;;;;;4975973;28;20023;-76
2022/04/04 01:06:39;;;;;;;1.27;0.60;;;30.10;76.80;;;;;;4983907;28;20772;-76
2022/04/04 01:09:06;;;;;;;1.52;0.60;;;30.30;77.60;;;;;;4979586;28;20041;-76
2022/04/04 01:11:35;;;;;;;1.42;0.43;;;30.80;77.10;;;;;;4986692;28;20035;-75
2022/04/04 01:14:02;;;;;;;1.10;0.30;;;30.80;75.20;;;;;;4984002;28;20034;-75
2022/04/04 01:16:30;;;;;;;1.20;0.60;;;31.40;77.00;;;;;;4974284;28;20532;-75
2022/04/04 01:18:57;;;;;;;3.22;0.60;;;31.40;75.00;;;;;;4971093;28;20027;-74
2022/04/04 01:21:24;;;;;;;4.50;0.73;;;31.40;74.80;;;;;;4973662;28;20684;-75
2022/04/04 01:23:56;;;;;;;2.47;0.40;;;31.50;72.90;;;;;;4974710;28;20090;-75
2022/04/04 01:26:23;;;;;;;1.38;0.60;;;31.50;73.50;;;;;;4971864;28;20045;-77
2022/04/04 01:28:51;;;;;;;1.05;0.52;;;31.80;74.60;;;;;;4972730;28;20041;-75
2022/04/04 01:31:18;;;;;;;1.05;0.45;;;32.00;73.50;;;;;;4973746;28;20599;-75
2022/04/04 01:33:45;;;;;;;2.15;0.45;;;32.20;73.10;;;;;;4972717;28;20095;-73
2022/04/04 01:36:13;;;;;;;0.63;0.50;;;31.90;73.90;;;;;;4971936;28;20035;-73
2022/04/04 01:38:40;;;;;;;1.60;0.50;;;31.30;72.10;;;;;;4971599;28;20090;-74
2022/04/04 01:41:07;;;;;;;1.65;0.60;;;30.90;73.30;;;;;;4972458;28;20519;-75
2022/04/04 01:43:35;;;;;;;1.55;0.70;;;30.50;72.40;;;;;;4978327;28;20043;-75
2022/04/04 01:48:47;;;;;;;;;;;31.00;72.20;;;;;;5000239;28;20034;-74
2022/04/04 01:51:14;;;;;;;3.13;0.82;;;31.20;73.30;;;;;;5003085;28;19913;-76
2022/04/04 01:53:42;;;;;;;3.03;0.40;;;31.40;73.40;;;;;;4981562;28;20034;-74
2022/04/04 01:56:10;;;;;;;1.70;1.05;;;31.10;73.00;;;;;;4975089;28;20027;-74
2022/04/04 01:58:37;;;;;;;2.13;0.70;;;30.90;70.90;;;;;;4970781;28;20038;-75
2022/04/04 02:01:16;;;;;;;0.60;0.30;;;31.10;73.00;;;;;;4974711;28;20046;-75
2022/04/04 02:03:50;;;;;;;1.58;0.30;;;31.60;74.30;;;;;;4974815;28;20093;-74
2022/04/04 02:06:20;;;;;;;1.58;0.50;;;31.70;73.90;;;;;;4974994;28;20180;-75
2022/04/04 02:08:49;;;;;;;3.50;0.40;;;31.40;73.10;;;;;;4974531;28;21091;-75
2022/04/04 02:11:20;;;;;;;3.13;0.80;;;31.20;72.20;;;;;;4975331;28;20441;-75
2022/04/04 02:13:47;;;;;;;1.70;0.40;;;31.50;76.00;;;;;;4969267;28;20065;-75
2022/04/04 02:16:15;;;;;;;3.40;0.60;;;31.70;72.00;;;;;;4980714;28;20444;-74
2022/04/04 02:18:42;;;;;;;2.53;0.40;;;31.80;71.30;;;;;;4975588;28;20133;-74
2022/04/04 02:21:10;;;;;;;2.63;0.40;;;31.80;70.60;;;;;;4971023;28;20038;-75
2022/04/04 02:23:37;;;;;;;0.40;0.40;;;32.00;72.70;;;;;;4974250;28;20117;-75
2022/04/04 02:26:05;;;;;;;1.70;0.63;;;32.20;71.90;;;;;;4968045;28;20054;-74
2022/04/04 02:28:33;;;;;;;0.95;0.40;;;32.20;70.80;;;;;;4975535;28;20124;-77
2022/04/04 02:31:01;;;;;;;2.17;0.50;;;32.10;72.10;;;;;;4972959;28;20089;-75
2022/04/04 02:33:28;;;;;;;1.33;0.30;;;32.40;73.00;;;;;;4972593;28;20038;-75
2022/04/04 02:35:56;;;;;;;3.70;0.50;;;32.50;70.70;;;;;;4968043;28;20041;-74
2022/04/04 02:38:25;;;;;;;2.30;0.40;;;32.60;70.10;;;;;;4970639;28;20022;-74
2022/04/04 02:40:53;;;;;;;1.15;0.30;;;32.40;70.10;;;;;;4967643;28;20061;-75
2022/04/04 02:43:22;;;;;;;1.83;0.40;;;32.50;72.30;;;;;;4970047;28;20113;-74
2022/04/04 02:45:49;;;;;;;1.45;0.88;;;32.70;68.80;;;;;;4974437;28;20504;-75
2022/04/04 02:48:16;;;;;;;2.28;0.32;;;32.60;70.90;;;;;;4973037;28;20035;-75
2022/04/04 02:50:45;;;;;;;2.60;0.65;;;32.70;70.00;;;;;;4968910;28;20026;-73
2022/04/04 02:53:13;;;;;;;0.80;0.30;;;32.30;70.20;;;;;;4971783;28;20081;-75
2022/04/04 02:58:27;;;;;;;1.52;0.35;;;33.00;70.40;;;;;;4971542;28;20030;-75
2022/04/04 03:00:54;;;;;;;1.23;0.57;;;33.40;70.10;;;;;;4970100;28;20039;-75
2022/04/04 03:03:21;;;;;;;1.52;0.55;;;33.40;68.10;;;;;;4971094;28;20490;-75
2022/04/04 03:05:49;;;;;;;1.33;0.65;;;33.50;69.60;;;;;;4971261;28;20034;-74
2022/04/04 03:08:17;;;;;;;1.65;0.38;;;33.60;68.20;;;;;;4972531;28;20038;-75
2022/04/04 03:10:45;;;;;;;0.82;0.30;;;33.70;67.80;;;;;;4967698;28;20029;-75
2022/04/04 03:13:12;;;;;;;0.95;0.25;;;33.90;69.40;;;;;;4972213;28;20022;-70
2022/04/04 03:15:41;;;;;;;1.23;0.50;;;34.10;68.00;;;;;;4970161;28;20080;-75
2022/04/04 03:18:08;;;;;;;0.90;0.40;;;34.30;69.10;;;;;;4970880;28;20022;-75
2022/04/04 03:20:36;;;;;;;2.45;0.40;;;34.50;69.90;;;;;;4970531;28;20042;-75
2022/04/04 03:23:04;;;;;;;3.60;0.45;;;34.60;69.50;;;;;;4970824;28;20073;-75
2022/04/04 03:25:31;;;;;;;1.73;0.45;;;34.60;68.30;;;;;;4969683;28;20061;-75
2022/04/04 03:27:59;;;;;;;4.90;0.38;;;34.50;64.60;;;;;;4970877;28;21755;-75
2022/04/04 03:30:29;;;;;;;2.67;0.32;;;34.20;65.00;;;;;;4971368;28;20053;-76
2022/04/04 03:32:57;;;;;;;3.00;0.30;;;34.10;67.20;;;;;;4970240;28;20042;-74
2022/04/04 03:35:27;;;;;;;1.05;0.20;;;33.90;63.80;;;;;;4969296;28;20034;-74
2022/04/04 03:37:56;;;;;;;1.88;0.43;;;33.90;65.50;;;;;;4967962;28;20033;-74
2022/04/04 03:40:23;;;;;;;0.25;0.17;;;33.80;66.00;;;;;;4974578;28;20046;-74
2022/04/04 03:42:54;;;;;;;0.75;0.40;;;33.40;65.50;;;;;;4972123;28;20576;-75
2022/04/04 03:45:22;;;;;;;0.80;0.25;;;33.30;66.40;;;;;;4973128;28;20039;-75
2022/04/04 03:47:50;;;;;;;1.83;0.52;;;33.70;68.50;;;;;;4971814;28;20033;-75
2022/04/04 03:50:19;;;;;;;1.30;0.40;;;33.90;66.40;;;;;;4968504;28;20045;-74
2022/04/04 03:52:50;;;;;;;0.90;0.30;;;33.60;62.80;;;;;;4970305;28;20027;-75
2022/04/04 03:55:18;;;;;;;2.17;0.40;;;33.10;64.10;;;;;;4982927;28;20193;-75
2022/04/04 03:57:46;;;;;;;1.98;0.30;;;33.10;64.30;;;;;;4971551;28;20018;-76
2022/04/04 04:00:13;;;;;;;2.53;0.55;;;33.30;68.30;;;;;;4972941;28;20023;-76
2022/04/04 04:02:41;;;;;;;2.63;0.40;;;33.20;66.30;;;;;;4975180;28;20035;-75
2022/04/04 04:05:09;;;;;;;1.83;0.50;;;33.30;64.80;;;;;;4976694;28;20433;-74
2022/04/04 04:07:37;;;;;;;2.17;0.30;;;33.10;66.30;;;;;;4972197;28;20079;-75
2022/04/04 04:10:05;;;;;;;1.85;0.30;;;32.60;65.90;;;;;;4972960;28;20035;-75
2022/04/04 04:12:33;;;;;;;1.65;0.30;;;32.70;66.40;;;;;;4972078;28;20489;-75
2022/04/04 04:15:01;;;;;;;1.10;0.20;;;33.00;66.20;;;;;;4970256;28;20168;-74
2022/04/04 04:17:29;;;;;;;1.05;0.30;;;33.30;68.00;;;;;;4970093;28;20035;-75
2022/04/04 04:22:42;;;;;;;4.20;0.40;;;33.20;62.40;;;;;;4984943;28;20436;-75
2022/04/04 04:25:09;;;;;;;1.50;0.30;;;32.30;62.40;;;;;;4978238;28;20027;-75
2022/04/04 04:27:37;;;;;;;1.95;0.22;;;31.60;64.50;;;;;;4984935;28;20093;-75
2022/04/04 04:30:05;;;;;;;0.30;0.20;;;31.40;61.50;;;;;;4989165;28;20157;-75
2022/04/04 04:32:33;;;;;;;1.13;0.30;;;31.70;63.10;;;;;;4975102;28;20053;-74
2022/04/04 04:35:00;;;;;;;1.38;0.20;;;31.90;60.90;;;;;;4975690;28;20034;-75
2022/04/04 04:37:28;;;;;;;0.30;0.10;;;32.10;63.50;;;;;;4990793;28;20401;-75
2022/04/04 04:39:55;;;;;;;1.42;0.30;;;32.20;62.60;;;;;;4973945;28;20035;-75
2022/04/04 04:42:23;;;;;;;0.22;0.20;;;32.40;64.50;;;;;;4987768;28;20034;-76
2022/04/04 04:44:51;;;;;;;0.98;0.28;;;32.70;63.40;;;;;;4970122;28;20062;-75
2022/04/04 04:47:18;;;;;;;1.13;0.40;;;32.50;64.00;;;;;;4974651;28;20494;-74
2022/04/04 04:49:48;;;;;;;0.32;0.17;;;32.20;60.60;;;;;;4972306;28;20034;-75
2022/04/04 04:52:16;;;;;;;1.85;0.15;;;32.00;61.10;;;;;;4968565;28;20046;-73
2022/04/04 04:54:44;;;;;;;2.80;0.30;;;32.20;63.00;;;;;;4969462;28;20769;-74
2022/04/04 04:57:12;;;;;;;0.40;0.13;;;32.30;62.30;;;;;;4972315;28;20057;-75
2022/04/04 04:59:40;;;;;;;1.75;0.38;;;32.30;62.10;;;;;;4969269;28;20026;-75
2022/04/04 05:02:07;;;;;;;3.92;0.28;;;32.40;61.70;;;;;;4970971;28;20038;-75
2022/04/04 05:04:34;;;;;;;1.45;0.20;;;32.40;61.10;;;;;;4977762;28;20362;-75
2022/04/04 05:07:02;;;;;;;1.33;0.30;;;32.10;60.00;;;;;;4971760;28;20026;-75
2022/04/04 05:09:29;;;;;;;1.10;0.60;;;31.80;63.00;;;;;;4971923;28;20477;-75
2022/04/04 05:11:56;;;;;;;1.95;0.40;;;31.60;62.10;;;;;;4974101;28;20069;-74
2022/04/04 05:14:24;;;;;;;1.00;0.20;;;31.60;63.30;;;;;;4973569;28;20124;-76
2022/04/04 05:16:53;;;;;;;3.10;0.20;;;31.50;63.00;;;;;;4977421;28;20029;-77
2022/04/04 05:19:22;;;;;;;2.20;0.30;;;31.50;62.80;;;;;;4984439;28;20030;-75
2022/04/04 05:21:51;;;;;;;0.60;0.25;;;31.30;61.80;;;;;;4975846;28;20448;-75
2022/04/04 05:24:19;;;;;;;2.22;0.57;;;31.00;63.80;;;;;;4989793;28;20026;-75
2022/04/04 05:26:49;;;;;;;0.90;0.32;;;30.70;64.00;;;;;;4988980;28;20034;-75
2022/04/04 05:29:17;;;;;;;0.63;0.20;;;30.60;64.50;;;;;;4972484;28;20031;-75
2022/04/04 05:31:48;;;;;;;0.30;0.20;;;30.40;63.60;;;;;;4984885;28;20173;-73
2022/04/04 05:34:15;;;;;;;1.00;0.20;;;30.40;65.10;;;;;;4977834;28;20564;-73
2022/04/04 05:36:42;;;;;;;0.73;0.20;;;30.20;64.40;;;;;;4973832;28;20050;-74
2022/04/04 05:39:10;;;;;;;1.67;0.30;;;30.10;65.70;;;;;;4974814;28;20031;-75
2022/04/04 05:41:37;;;;;;;1.20;0.30;;;30.30;65.20;;;;;;4972336;28;20051;-74
2022/04/04 05:44:08;;;;;;;1.10;0.30;;;30.40;64.40;;;;;;4975684;28;20478;-75
2022/04/04 05:46:36;;;;;;;2.47;0.47;;;30.30;65.90;;;;;;4975286;28;20427;-76
2022/04/04 05:49:03;;;;;;;1.27;0.20;;;30.10;63.90;;;;;;4974627;28;20047;-76
2022/04/04 05:51:33;;;;;;;1.85;0.35;;;29.90;65.30;;;;;;4995304;28;20027;-75
2022/04/04 05:54:01;;;;;;;2.60;0.82;;;29.80;66.30;;;;;;4991041;28;20038;-76
2022/04/04 05:56:28;;;;;;;3.25;0.70;;;29.90;64.20;;;;;;4992748;28;20039;-73
2022/04/04 05:58:55;;;;;;;2.80;0.77;;;30.00;65.50;;;;;;4974844;28;20030;-75
2022/04/04 06:01:23;;;;;;;1.73;0.20;;;30.00;65.00;;;;;;4973344;28;20062;-75
2022/04/04 06:03:50;;;;;;;0.90;0.45;;;30.10;65.90;;;;;;4977987;28;20027;-74
2022/04/04 06:06:19;;;;;;;1.48;0.28;;;30.10;64.80;;;;;;4973050;28;20054;-74
2022/04/04 06:08:46;;;;;;;1.48;0.20;;;30.10;65.10;;;;;;4975239;28;20027;-75
2022/04/04 06:11:13;;;;;;;0.98;0.20;;;30.00;64.60;;;;;;4973142;28;20028;-75
2022/04/04 06:13:41;;;;;;;0.63;0.20;;;29.90;65.00;;;;;;4972850;28;20022;-74
2022/04/04 06:16:09;;;;;;;1.63;0.32;;;29.90;64.70;;;;;;4975832;28;20031;-74
2022/04/04 06:18:37;;;;;;;0.47;0.47;;;29.80;64.60;;;;;;4974107;28;20038;-75
2022/04/04 06:21:59;;;;;;;0.63;0.28;;;29.80;64.80;;;;;;4975071;28;20686;-74
2022/04/04 06:27:34;;;;;;;2.65;0.20;;;29.70;66.50;;;;;;4919387;29;20143;-75
2022/04/04 06:30:01;;;;;;;0.55;0.20;;;29.60;65.70;;;;;;4920724;29;20112;-75
2022/04/04 06:32:31;;;;;;;1.15;0.38;;;29.60;64.80;;;;;;4951436;28;20081;-75
2022/04/04 06:34:59;;;;;;;2.13;0.50;;;29.40;64.40;;;;;;4974622;28;20474;-75
2022/04/04 06:37:27;;;;;;;0.30;0.20;;;29.30;66.10;;;;;;4971649;28;20554;-75
2022/04/04 06:39:54;;;;;;;0.73;0.20;;;29.20;65.10;;;;;;4973463;28;20064;-73
2022/04/04 06:42:23;;;;;;;0.95;0.30;;;29.10;65.10;;;;;;4975321;28;20057;-75
2022/04/04 06:44:50;;;;;;;1.38;0.20;;;29.00;65.50;;;;;;4972224;28;20102;-74
2022/04/04 06:47:17;;;;;;;1.42;0.25;;;28.80;65.60;;;;;;4977332;28;20046;-75
2022/04/04 06:49:45;;;;;;;0.40;0.10;;;28.80;65.20;;;;;;4973110;28;20035;-75
2022/04/04 06:52:12;;;;;;;0.65;0.20;;;28.70;65.40;;;;;;4970935;28;20034;-75
2022/04/04 06:54:40;;;;;;;0.20;0.10;;;28.60;65.60;;;;;;4971098;28;20030;-75
2022/04/04 06:57:07;;;;;;;0.38;0.15;;;28.50;65.70;;;;;;4972363;28;20073;-74
2022/04/04 06:59:35;;;;;;;2.00;0.20;;;28.40;66.20;;;;;;4964787;28;20121;-75
2022/04/04 07:02:03;;;;;;;1.38;0.17;;;28.30;65.60;;;;;;4972152;28;20662;-74
2022/04/04 07:04:31;;;;;;;1.27;0.20;;;28.20;66.10;;;;;;4973130;28;20022;-74
2022/04/04 07:06:58;;;;;;;1.25;0.40;;;28.00;66.00;;;;;;4970897;28;20038;-74
2022/04/04 07:09:26;;;;;;;0.73;0.30;;;27.90;65.90;;;;;;4970978;28;20027;-75
2022/04/04 07:11:55;;;;;;;0.98;0.20;;;27.70;65.90;;;;;;4970960;28;20031;-75
2022/04/04 07:14:22;;;;;;;5.50;0.45;;;27.50;66.40;;;;;;4973348;28;20033;-75
2022/04/04 07:16:52;;;;;;;1.38;0.40;;;27.40;66.90;;;;;;4971252;28;20058;-76
2022/04/04 07:19:22;;;;;;;2.95;0.32;;;27.20;66.90;;;;;;4969345;28;20022;-75
2022/04/04 07:21:52;;;;;;;2.92;0.35;;;27.00;67.30;;;;;;4972425;28;20077;-75
2022/04/04 07:24:22;;;;;;;0.60;0.38;;;26.80;67.90;;;;;;4969420;28;20157;-75
2022/04/04 07:26:49;;;;;;;1.95;0.20;;;26.60;68.40;;;;;;4974430;28;20019;-76
2022/04/04 07:29:17;;;;;;;0.55;0.30;;;26.50;68.40;;;;;;4968117;28;20071;-74
2022/04/04 07:31:44;;;;;;;1.00;0.30;;;26.30;69.10;;;;;;4970635;28;20035;-75
2022/04/04 07:34:12;;;;;;;1.40;0.50;;;26.10;69.70;;;;;;4971259;28;20042;-75
2022/04/04 07:36:41;;;;;;;1.88;0.52;;;26.00;70.60;;;;;;4968984;28;20076;-75
2022/04/04 07:39:09;;;;;;;1.42;0.50;;;25.80;70.10;;;;;;4970799;28;20836;-75
2022/04/04 07:41:37;;;;;;;5.70;1.25;;;25.70;71.10;;;;;;4967922;28;20050;-75
2022/04/04 07:44:05;;;;;;;1.73;0.60;;;25.50;71.70;;;;;;4971255;28;20022;-77
2022/04/04 07:46:33;;;;;;;1.55;0.80;;;25.40;72.90;;;;;;4973329;28;20556;-75
2022/04/04 07:49:01;;;;;;;2.58;1.40;;;25.30;72.40;;;;;;4973563;28;20533;-73
2022/04/04 07:51:34;;;;;;;2.47;1.30;;;25.20;73.80;;;;;;4970487;28;20363;-73
2022/04/04 07:54:01;;;;;;;1.85;1.25;;;25.00;74.50;;;;;;4970845;28;20030;-73
2022/04/04 07:56:29;;;;;;;5.28;1.13;;;25.00;75.20;;;;;;4970355;28;20030;-73
2022/04/04 07:58:56;;;;;;;1.55;0.98;;;24.90;75.50;;;;;;4969627;28;21767;-73
2022/04/04 08:01:25;;;;;;;3.10;0.70;;;24.70;74.90;;;;;;4972252;28;20673;-72
2022/04/04 08:03:52;;;;;;;2.25;0.65;;;24.60;75.70;;;;;;4973355;28;20034;-72
2022/04/04 08:06:19;;;;;;;3.88;0.75;;;24.60;76.10;;;;;;4971494;28;20480;-76
2022/04/04 08:08:47;;;;;;;1.80;0.50;;;24.50;75.20;;;;;;4971006;28;20081;-75
2022/04/04 08:11:14;;;;;;;4.28;0.88;;;24.40;74.80;;;;;;4966672;28;20035;-73
2022/04/04 08:13:44;;;;;;;2.30;0.88;;;24.20;75.50;;;;;;4970429;28;20030;-73
2022/04/04 08:16:11;;;;;;;3.35;0.80;;;24.10;74.80;;;;;;4979236;28;20221;-74
2022/04/04 08:18:39;;;;;;;1.92;0.82;;;24.10;75.80;;;;;;4975073;28;20065;-73
2022/04/04 08:21:07;;;;;;;3.95;0.70;;;24.00;75.90;;;;;;4990340;28;20042;-74
2022/04/04 08:23:34;;;;;;;2.22;0.32;;;23.90;75.90;;;;;;4978721;28;20093;-74
2022/04/04 08:26:02;;;;;;;4.88;0.95;;;23.80;76.50;;;;;;4974533;28;20039;-74
2022/04/04 08:28:29;;;;;;;3.95;0.95;;;23.70;76.70;;;;;;4985965;28;20082;-74
2022/04/04 08:30:56;;;;;;;1.00;0.70;;;23.60;77.00;;;;;;4977009;28;20026;-74
2022/04/04 08:33:24;;;;;;;1.80;0.55;;;23.50;76.90;;;;;;4978147;28;20084;-74
2022/04/04 08:35:56;;;;;;;1.75;0.30;;;23.50;79.10;;;;;;4973563;28;20058;-74
2022/04/04 08:38:23;;;;;;;1.77;0.50;;;23.40;80.30;;;;;;4985006;28;20042;-74
2022/04/04 08:40:52;;;;;;;1.15;0.63;;;23.30;81.10;;;;;;4977941;28;20038;-74
2022/04/04 08:43:20;;;;;;;1.52;0.60;;;23.20;80.50;;;;;;4985788;28;20023;-73
2022/04/04 08:45:50;;;;;;;2.25;0.70;;;23.00;81.10;;;;;;4986049;28;20040;-76
2022/04/04 08:48:19;;;;;;;2.33;0.77;;;23.00;81.50;;;;;;4992382;28;20026;-74
2022/04/04 08:50:46;;;;;;;1.13;0.40;;;22.90;81.70;;;;;;4977474;28;20030;-74
2022/04/04 08:53:14;;;;;;;2.67;0.60;;;22.80;82.00;;;;;;4980650;28;20116;-74
2022/04/04 08:55:41;;;;;;;1.92;0.68;;;22.80;81.70;;;;;;4986786;28;20034;-74
2022/04/04 08:58:10;;;;;;;6.85;0.80;;;22.70;81.80;;;;;;4982824;28;20027;-74
2022/04/04 09:00:38;;;;;;;0.90;0.40;;;22.60;82.10;;;;;;4975342;28;20046;-74
2022/04/04 09:03:08;;;;;;;1.05;0.65;;;22.60;82.50;;;;;;4973762;28;20026;-74
2022/04/04 09:05:56;;;;;;;2.03;0.65;;;22.50;83.40;;;;;;4988384;28;20370;-74
2022/04/04 09:08:24;;;;;;;0.82;0.47;;;22.40;82.80;;;;;;4984979;28;20034;-73
2022/04/04 09:10:56;;;;;;;1.40;0.80;;;22.30;82.80;;;;;;4980442;28;20054;-73
2022/04/04 09:13:25;;;;;;;2.42;0.63;;;22.30;83.00;;;;;;4977411;28;20043;-74
2022/04/04 09:16:01;;;;;;;2.75;0.73;;;22.20;83.00;;;;;;4983933;28;20026;-73
2022/04/04 09:18:41;;;;;;;1.48;0.65;;;22.20;82.50;;;;;;4975183;28;20109;-73
2022/04/04 09:21:13;;;;;;;1.85;1.30;;;22.10;83.10;;;;;;4980839;28;20042;-73
2022/04/04 09:23:46;;;;;;;1.08;0.68;;;22.10;83.00;;;;;;4976429;28;20058;-73
2022/04/04 09:26:36;;;;;;;2.28;1.20;;;22.10;82.60;;;;;;4989100;28;20129;-73
2022/04/04 09:29:07;;;;;;;2.03;0.95;;;22.00;83.30;;;;;;4975742;28;20030;-73
2022/04/04 09:31:36;;;;;;;1.90;0.73;;;21.90;82.70;;;;;;4990979;28;20469;-73
2022/04/04 09:34:05;;;;;;;3.95;1.20;;;21.90;84.40;;;;;;4980726;28;20034;-72
2022/04/04 09:36:45;;;;;;;1.83;0.80;;;21.80;84.40;;;;;;4975834;28;20062;-73
2022/04/04 09:39:16;;;;;;;5.63;1.67;;;21.70;85.60;;;;;;4988185;28;20081;-73
2022/04/04 09:41:44;;;;;;;4.20;1.60;;;21.60;86.40;;;;;;4984308;28;20058;-74
2022/04/04 09:44:11;;;;;;;2.65;0.80;;;21.50;87.30;;;;;;4980932;28;20130;-74
2022/04/04 09:46:41;;;;;;;3.08;1.40;;;21.40;88.00;;;;;;4978211;28;20096;-74
2022/04/04 09:49:15;;;;;;;2.47;1.30;;;21.40;88.00;;;;;;4990021;28;20413;-75
2022/04/04 09:51:43;;;;;;;2.90;1.10;;;21.30;89.20;;;;;;4981612;28;20035;-74
2022/04/04 09:54:27;;;;;;;1.60;0.93;;;21.20;89.20;;;;;;4984835;28;20034;-74
2022/04/04 09:57:16;;;;;;;5.38;1.35;;;21.10;87.70;;;;;;4992545;28;20027;-74
2022/04/04 09:59:44;;;;;;;2.47;1.33;;;21.10;87.40;;;;;;4976760;28;20035;-74
2022/04/04 10:02:15;;;;;;;2.45;1.13;;;21.10;87.80;;;;;;4983328;28;20382;-74
2022/04/04 10:04:46;;;;;;;3.00;1.05;;;21.10;88.10;;;;;;4973592;28;20043;-73
2022/04/04 10:07:17;;;;;;;2.08;0.70;;;21.10;88.00;;;;;;4975306;28;20026;-74
2022/04/04 10:09:45;;;;;;;1.65;0.60;;;21.10;87.80;;;;;;4984633;28;20440;-73
2022/04/04 10:12:12;;;;;;;3.08;0.98;;;21.00;87.80;;;;;;4974730;28;20031;-73
2022/04/04 10:14:41;;;;;;;0.90;0.47;;;21.00;88.30;;;;;;4985597;28;20027;-74
2022/04/04 10:17:09;;;;;;;0.70;0.47;;;21.00;88.50;;;;;;4982827;28;20026;-73
2022/04/04 10:19:37;;;;;;;1.95;0.75;;;20.90;88.10;;;;;;4993261;28;20050;-74
2022/04/04 10:22:05;;;;;;;1.17;0.60;;;20.80;87.20;;;;;;5011573;28;20030;-72
2022/04/04 10:24:34;;;;;;;1.45;0.70;;;20.80;87.60;;;;;;5002248;28;20094;-74
2022/04/04 10:27:02;;;;;;;3.97;1.10;;;20.70;88.30;;;;;;5005393;28;20027;-73
2022/04/04 10:29:40;;;;;;;3.42;0.93;;;20.70;88.70;;;;;;4993001;28;20058;-74
2022/04/04 10:32:23;;;;;;;2.22;1.27;;;20.60;89.10;;;;;;4979273;28;20042;-73
2022/04/04 10:34:51;;;;;;;1.73;0.85;;;20.60;89.80;;;;;;4984913;28;20026;-73
2022/04/04 10:37:21;;;;;;;1.70;0.68;;;20.50;90.10;;;;;;4987358;28;21026;-73
2022/04/04 10:39:50;;;;;;;1.80;0.77;;;20.40;90.00;;;;;;4979278;28;20397;-73
2022/04/04 10:42:41;;;;;;;1.63;0.60;;;20.40;90.20;;;;;;4978385;28;20063;-73
2022/04/04 10:45:13;;;;;;;3.20;0.68;;;20.30;90.30;;;;;;4973838;28;20710;-73
2022/04/04 10:47:42;;;;;;;2.50;0.70;;;20.20;90.60;;;;;;4980100;28;20120;-73
2022/04/04 10:50:33;;;;;;;3.05;0.80;;;20.20;90.70;;;;;;4971966;28;20130;-73
2022/04/04 10:53:04;;;;;;;2.53;0.55;;;20.10;90.90;;;;;;4979182;28;20117;-73
2022/04/04 10:55:43;;;;;;;1.30;0.80;;;20.00;90.90;;;;;;4981263;28;20027;-74
2022/04/04 10:58:13;;;;;;;2.53;0.85;;;20.00;90.70;;;;;;4971433;28;20054;-74
2022/04/04 11:01:02;;;;;;;3.03;0.70;;;20.00;90.50;;;;;;4974401;28;20523;-74
2022/04/04 11:03:35;;;;;;;3.92;0.68;;;20.00;90.40;;;;;;4975521;28;20102;-74
2022/04/04 11:09:15;;;;;;;0.70;0.50;;;19.90;90.70;;;;;;4973926;28;20034;-73
2022/04/04 11:12:09;;;;;;;0.82;0.40;;;19.90;90.70;;;;;;4979842;28;20027;-73
2022/04/04 11:14:46;;;;;;;3.85;0.70;;;19.90;90.70;;;;;;4972516;28;20444;-73
2022/04/04 11:17:18;;;;;;;0.65;0.40;;;19.80;90.80;;;;;;4978261;28;20037;-73
2022/04/04 11:19:49;;;;;;;1.55;0.57;;;19.80;91.00;;;;;;4981221;28;20496;-73
2022/04/04 11:22:25;;;;;;;1.10;0.50;;;19.80;91.10;;;;;;4985516;28;20045;-73
2022/04/04 11:25:07;;;;;;;1.27;0.50;;;19.70;91.20;;;;;;4973544;28;20033;-73
2022/04/04 11:27:37;;;;;;;2.42;0.68;;;19.60;91.70;;;;;;4979468;28;20473;-75
2022/04/04 11:30:10;;;;;;;2.78;0.50;;;19.60;91.70;;;;;;4975029;28;20512;-75
2022/04/04 11:32:40;;;;;;;1.23;0.70;;;19.50;91.90;;;;;;4979760;28;20053;-74
2022/04/04 11:35:22;;;;;;;2.42;0.60;;;19.50;92.00;;;;;;4968539;28;20073;-75
2022/04/04 11:38:00;;;;;;;0.70;0.43;;;19.40;92.30;;;;;;4979859;28;20087;-74
2022/04/04 11:40:34;;;;;;;2.42;0.60;;;19.30;92.40;;;;;;4981563;28;20116;-74
2022/04/04 11:43:19;;;;;;;1.50;0.55;;;19.30;92.70;;;;;;4996133;28;20030;-75
2022/04/04 11:45:47;;;;;;;0.65;0.45;;;19.20;92.80;;;;;;4986506;28;20109;-74
2022/04/04 11:48:27;;;;;;;1.00;0.63;;;19.10;93.10;;;;;;4981618;28;20497;-74
2022/04/04 11:50:58;;;;;;;5.05;0.60;;;19.10;93.10;;;;;;4981527;28;20131;-77
2022/04/04 11:53:37;;;;;;;1.95;0.63;;;19.10;93.20;;;;;;4983234;28;20034;-73
2022/04/04 11:56:10;;;;;;;4.10;1.25;;;19.00;93.20;;;;;;4972471;28;20144;-75
2022/04/04 11:58:51;;;;;;;0.90;0.88;;;19.00;93.30;;;;;;4975728;28;20034;-75
2022/04/04 12:01:18;;;;;;;4.43;0.63;;;18.90;93.40;;;;;;4970959;28;20043;-74
2022/04/04 12:03:49;;;;;;;2.92;0.60;;;18.90;93.40;;;;;;4972228;28;21751;-75
2022/04/04 12:06:17;;;;;;;2.20;0.70;;;18.80;93.50;;;;;;4975827;28;20039;-73
2022/04/04 12:08:45;;;;;;;2.95;0.50;;;18.80;93.50;;;;;;4977118;28;20045;-74
2022/04/04 12:11:13;;;;;;;0.90;0.60;;;18.70;93.50;;;;;;4980917;28;20055;-74
2022/04/04 12:14:00;;;;;;;1.00;0.70;;;18.70;93.80;;;;;;4979129;28;20596;-73
2022/04/04 12:16:30;;;;;;;3.78;1.52;;;18.70;93.70;;;;;;4980522;28;20397;-72
2022/04/04 12:19:01;;;;;;;1.45;1.23;;;18.70;93.70;;;;;;4985122;28;20905;-73
2022/04/04 12:21:29;;;;;;;0.73;0.65;;;18.70;93.80;;;;;;4980309;28;20051;-74
2022/04/04 12:26:45;;;;;;;1.25;0.70;;;18.60;93.80;;;;;;4971185;28;20046;-73
2022/04/04 12:29:14;;;;;;;1.67;0.68;;;18.60;93.90;;;;;;4977691;28;20037;-73
2022/04/04 12:31:55;;;;;;;2.38;0.75;;;18.50;94.10;;;;;;4977233;28;20047;-73
2022/04/04 12:34:25;;;;;;;1.77;0.60;;;18.50;94.10;;;;;;4982714;28;20035;-74
2022/04/04 12:37:01;;;;;;;5.43;1.08;;;18.50;94.30;;;;;;4973161;28;20062;-72
2022/04/04 12:39:28;;;;;;;1.10;0.80;;;18.50;94.40;;;;;;4973320;28;20031;-73
2022/04/04 12:41:56;;;;;;;6.18;1.08;;;18.40;94.50;;;;;;4973848;28;20109;-74
2022/04/04 12:44:26;;;;;;;2.55;0.60;;;18.40;94.80;;;;;;4979929;28;20034;-73
2022/04/04 12:47:12;;;;;;;1.30;0.70;;;18.30;95.50;;;;;;4980149;28;20046;-73
2022/04/04 12:49:40;;;;;;;3.58;0.85;;;18.20;95.90;;;;;;4975242;28;20031;-73
2022/04/04 12:52:10;;;;;;;1.30;0.60;;;18.10;96.20;;;;;;4977134;28;20472;-73
2022/04/04 12:54:40;;;;;;;1.27;0.68;;;18.00;96.30;;;;;;4978005;28;20034;-73
2022/04/04 12:57:11;;;;;;;2.72;0.70;;;18.00;96.50;;;;;;4979499;28;20061;-73
2022/04/04 12:59:54;;;;;;;1.45;0.90;;;17.90;96.80;;;;;;4975494;28;20042;-75
2022/04/04 13:02:31;;;;;;;1.77;0.82;;;17.80;97.00;;;;;;4978159;28;20046;-75
2022/04/04 13:05:30;;;;;;;1.85;0.65;;;17.70;97.20;;;;;;4987921;28;20819;-76
2022/04/04 13:07:58;;;;;;;1.90;0.70;;;17.70;97.30;;;;;;4956246;28;20061;-76
2022/04/04 13:10:26;;;;;;;6.05;0.98;;;17.60;97.50;;;;;;4986459;28;20030;-76
2022/04/04 13:13:17;;;;;;;3.30;0.90;;;17.60;97.60;;;;;;4987270;28;20025;-74
2022/04/04 13:15:47;;;;;;;2.05;0.88;;;17.60;97.50;;;;;;4992014;28;20039;-74
2022/04/04 13:18:19;;;;;;;1.75;0.80;;;17.50;97.40;;;;;;4988708;28;20034;-74